Flight Information

DEPARTURE
BAKERSFIELD, CA
Elevation:
509
Runways:
12R/30L - 7700x100 - ASPH-E
12L/30R - 10849x150 - ASPH-G
ATIS:
118.6 661-399-9425
Ground:
121.7
Tower:
BAKERSFIELD TOWER 118.1
DESTINATION
,
Elevation:
TPA:
1000 (est.)


6798.4 NM72° True-14° Var57° HDG

Flight Plan:
(click to file on line)

1. Type
2. Aircraft Identification
3. Aircraft Type / Special Equipment
4. True Airspeed
kts
5. Departure Airport
(ICAO code)
6. Arriving Airport
(ICAO code)
7. Cruising Altitude
ft
8. Alternate Airport
(ICAO code)
9. Route of Flight
10. Remarks


00:00:00 Departure ATIS: Destination ATIS:

Clearance Limit:
Route:
Altitude: Expect in minutes
Frequency:
Transponder: (7500 Hijack / 7600 Lost Comms / 7700 Emergency)


KBFL 010854Z AUTO 00000KT 10SM BKN049 14/08 A2997 RMK AO2 SLP145 T01390078 56010
Time: 2020-04-01T08:54:00Z
1585732482
Winds: calm
Visibility: 10.0 sm
Clouds (AGL): BKN 4900
Temperature: 13.9 C
Dew Point: 7.8 C
Pressure: 29.970472 in Hgbr


Notes:

Data extracted from FAA Digital Chart Supplement. Effective: 0901Z Thursday, Mar 26, 2020 to 0901Z Thursday, May 21, 2020
Current ATIS data is provided courtisy of PilotEdge.